Time;durP1;ratioP1;P1;durP2;ratioP2;P2;SDS_P1;SDS_P2;PMS_P1;PMS_P2;Temp;Humidity;BMP_temperature;BMP_pressure;BME280_temperature;BME280_humidity;BME280_pressure;Samples;Min_cycle;Max_cycle;Signal;HPM_P1;HPM_P2
2023/05/11 00:00:19;;;;;;;13.07;5.32;;;;;;;;;;5103538;28;20044;-69
2023/05/11 00:02:46;;;;;;;12.48;5.25;;;;;;;;;;5096568;28;20040;-69
2023/05/11 00:05:12;;;;;;;7.78;5.07;;;;;;;;;;5093986;28;20083;-69
2023/05/11 00:07:38;;;;;;;7.95;5.25;;;;;;;;;;5088851;28;20135;-70
2023/05/11 00:10:04;;;;;;;13.50;6.50;;;;;;;;;;5086015;28;20553;-70
2023/05/11 00:12:31;;;;;;;7.28;5.20;;;;;;;;;;5087375;28;20058;-70
2023/05/11 00:14:57;;;;;;;8.07;5.05;;;;;;;;;;5098226;28;20507;-70
2023/05/11 00:17:23;;;;;;;13.48;5.95;;;;;;;;;;5108090;28;20096;-69
2023/05/11 00:19:49;;;;;;;12.30;6.47;;;;;;;;;;5104788;28;20055;-69
2023/05/11 00:22:15;;;;;;;9.35;6.57;;;;;;;;;;5091101;28;20119;-70
2023/05/11 00:24:41;;;;;;;9.10;6.22;;;;;;;;;;5091144;28;20068;-69
2023/05/11 00:27:08;;;;;;;9.23;5.63;;;;;;;;;;5091559;28;20093;-70
2023/05/11 00:29:34;;;;;;;6.95;5.25;;;;;;;;;;5093432;28;20147;-70
2023/05/11 00:32:00;;;;;;;8.80;6.07;;;;;;;;;;5095681;28;20269;-70
2023/05/11 00:34:26;;;;;;;10.18;6.40;;;;;;;;;;5100471;28;20039;-70
2023/05/11 00:36:52;;;;;;;9.15;6.35;;;;;;;;;;5101204;28;20078;-70
2023/05/11 00:39:18;;;;;;;11.23;7.20;;;;;;;;;;5094077;28;20119;-70
2023/05/11 00:41:45;;;;;;;11.45;6.70;;;;;;;;;;5090964;28;20542;-70
2023/05/11 00:44:11;;;;;;;9.93;6.88;;;;;;;;;;5090736;28;20035;-70
2023/05/11 00:46:38;;;;;;;9.60;6.05;;;;;;;;;;5102832;28;20051;-71
2023/05/11 00:49:04;;;;;;;10.95;7.18;;;;;;;;;;5100501;28;20047;-70
2023/05/11 00:51:31;;;;;;;10.20;5.82;;;;;;;;;;5095447;28;20067;-70
2023/05/11 00:53:58;;;;;;;11.50;6.30;;;;;;;;;;5109646;28;20120;-70
2023/05/11 00:56:24;;;;;;;11.00;7.35;;;;;;;;;;5105136;28;20056;-70
2023/05/11 00:58:51;;;;;;;14.20;6.32;;;;;;;;;;5098455;28;20087;-70
2023/05/11 01:01:17;;;;;;;10.38;6.40;;;;;;;;;;5098415;28;20040;-70
2023/05/11 01:03:44;;;;;;;7.85;6.43;;;;;;;;;;5110298;28;20031;-70
2023/05/11 01:06:15;;;;;;;7.95;4.90;;;;;;;;;;5105486;28;20031;-71
2023/05/11 01:08:42;;;;;;;7.37;5.40;;;;;;;;;;5093815;28;20189;-70
2023/05/11 01:11:35;;;;;;;6.55;4.68;;;;;;;;;;5091159;28;20059;-70
2023/05/11 01:14:22;;;;;;;7.07;4.60;;;;;;;;;;5089060;28;20051;-70
2023/05/11 01:16:51;;;;;;;7.13;5.03;;;;;;;;;;5089742;28;20051;-69
2023/05/11 01:19:35;;;;;;;5.72;4.53;;;;;;;;;;5108081;28;20085;-70
2023/05/11 01:22:07;;;;;;;7.70;4.22;;;;;;;;;;5099866;28;20093;-70
2023/05/11 01:24:36;;;;;;;7.10;4.22;;;;;;;;;;5090119;28;20040;-70
2023/05/11 01:27:20;;;;;;;8.23;4.97;;;;;;;;;;5088313;28;20046;-70
2023/05/11 01:29:50;;;;;;;9.57;5.15;;;;;;;;;;5088992;28;20461;-70
2023/05/11 01:32:16;;;;;;;7.80;4.65;;;;;;;;;;5101522;28;20036;-70
2023/05/11 01:34:43;;;;;;;6.82;4.95;;;;;;;;;;5104270;28;20542;-70
2023/05/11 01:37:14;;;;;;;9.98;5.00;;;;;;;;;;5094663;28;20048;-71
2023/05/11 01:39:45;;;;;;;8.10;5.50;;;;;;;;;;5089896;28;20467;-71
2023/05/11 01:42:12;;;;;;;7.43;5.03;;;;;;;;;;5101699;28;20043;-70
2023/05/11 01:44:39;;;;;;;7.65;4.88;;;;;;;;;;5100216;28;20489;-70
2023/05/11 01:47:06;;;;;;;7.00;4.50;;;;;;;;;;5090868;28;20036;-70
2023/05/11 01:49:37;;;;;;;7.50;4.47;;;;;;;;;;5089027;28;20503;-71
2023/05/11 01:52:05;;;;;;;6.72;4.53;;;;;;;;;;5104428;28;20036;-71
2023/05/11 01:54:32;;;;;;;7.18;4.82;;;;;;;;;;5089687;28;20228;-69
2023/05/11 01:56:59;;;;;;;9.95;5.00;;;;;;;;;;5089757;28;20081;-71
2023/05/11 01:59:26;;;;;;;7.07;4.82;;;;;;;;;;5089653;28;20126;-70
2023/05/11 02:01:53;;;;;;;9.93;5.72;;;;;;;;;;5090562;28;20501;-70
2023/05/11 02:04:19;;;;;;;8.55;6.10;;;;;;;;;;5093197;28;20507;-70
2023/05/11 02:06:46;;;;;;;20.65;6.55;;;;;;;;;;5096919;28;20028;-71
2023/05/11 02:09:14;;;;;;;7.25;5.22;;;;;;;;;;5096457;28;20056;-70
2023/05/11 02:11:42;;;;;;;10.18;5.18;;;;;;;;;;5089569;28;20048;-70
2023/05/11 02:14:09;;;;;;;6.38;4.45;;;;;;;;;;5087807;28;20075;-70
2023/05/11 02:16:35;;;;;;;12.00;5.35;;;;;;;;;;5090176;28;20044;-70
2023/05/11 02:19:02;;;;;;;8.68;5.43;;;;;;;;;;5101160;28;20044;-71
2023/05/11 02:21:30;;;;;;;14.35;5.55;;;;;;;;;;5100253;28;20131;-70
2023/05/11 02:23:57;;;;;;;7.68;4.72;;;;;;;;;;5103369;28;20078;-70
2023/05/11 02:26:23;;;;;;;7.72;5.22;;;;;;;;;;5089753;28;20052;-70
2023/05/11 02:28:49;;;;;;;19.85;6.50;;;;;;;;;;5089444;28;20084;-71
2023/05/11 02:31:28;;;;;;;77.20;10.70;;;;;;;;;;5093443;28;20444;-70
2023/05/11 02:33:56;;;;;;;23.30;7.00;;;;;;;;;;5091463;28;20131;-70
2023/05/11 02:36:23;;;;;;;60.65;12.48;;;;;;;;;;5089003;28;20044;-71
2023/05/11 02:38:53;;;;;;;55.78;10.25;;;;;;;;;;5087937;28;20051;-70
2023/05/11 02:41:25;;;;;;;49.78;9.10;;;;;;;;;;5103193;28;20430;-69
2023/05/11 02:43:53;;;;;;;6.90;3.92;;;;;;;;;;5088591;28;20509;-71
2023/05/11 02:46:21;;;;;;;29.25;7.55;;;;;;;;;;5089709;28;20043;-71
2023/05/11 02:48:50;;;;;;;5.93;3.70;;;;;;;;;;5097233;28;20210;-70
2023/05/11 02:51:18;;;;;;;69.63;12.38;;;;;;;;;;5105997;28;20424;-70
2023/05/11 02:53:45;;;;;;;15.52;5.38;;;;;;;;;;5107595;28;20047;-70
2023/05/11 02:56:11;;;;;;;29.92;7.72;;;;;;;;;;5096651;28;20110;-70
2023/05/11 02:58:38;;;;;;;56.92;8.82;;;;;;;;;;5087992;28;20504;-70
2023/05/11 03:01:06;;;;;;;12.73;5.93;;;;;;;;;;5089121;28;20047;-70
2023/05/11 03:03:33;;;;;;;8.98;4.25;;;;;;;;;;5088722;28;20046;-70
2023/05/11 03:05:59;;;;;;;50.05;8.82;;;;;;;;;;5093291;28;20490;-70
2023/05/11 03:08:25;;;;;;;55.10;9.30;;;;;;;;;;5092854;27;20044;-70
2023/05/11 03:10:52;;;;;;;154.27;17.25;;;;;;;;;;5106801;27;20039;-70
2023/05/11 03:13:19;;;;;;;12.48;5.20;;;;;;;;;;5095483;28;20040;-69
2023/05/11 03:15:45;;;;;;;68.10;9.68;;;;;;;;;;5087860;28;20080;-71
2023/05/11 03:18:12;;;;;;;19.80;6.15;;;;;;;;;;5091319;28;20043;-70
2023/05/11 03:20:39;;;;;;;15.60;5.43;;;;;;;;;;5088236;28;20075;-70
2023/05/11 03:23:06;;;;;;;8.82;3.92;;;;;;;;;;5091899;28;20039;-71
2023/05/11 03:25:32;;;;;;;15.27;4.55;;;;;;;;;;5090421;28;20036;-70
2023/05/11 03:28:00;;;;;;;8.18;3.33;;;;;;;;;;5104665;28;20073;-70
2023/05/11 03:30:27;;;;;;;10.25;3.80;;;;;;;;;;5089665;28;20075;-70
2023/05/11 03:32:53;;;;;;;11.50;3.83;;;;;;;;;;5093638;28;20044;-70
2023/05/11 03:35:21;;;;;;;5.50;3.05;;;;;;;;;;5093413;28;20115;-70
2023/05/11 03:37:48;;;;;;;9.82;3.78;;;;;;;;;;5088698;28;20117;-69
2023/05/11 03:40:16;;;;;;;30.38;5.43;;;;;;;;;;5099827;28;20123;-71
2023/05/11 03:42:43;;;;;;;9.70;3.97;;;11.50;99.90;;;;;;5089587;28;20050;-71
2023/05/11 03:45:13;;;;;;;10.10;4.90;;;10.70;99.90;;;;;;5098733;28;20105;-71
2023/05/11 03:47:40;;;;;;;6.15;3.38;;;10.60;99.90;;;;;;5087333;28;20044;-70
2023/05/11 03:50:07;;;;;;;8.80;3.65;;;10.60;99.90;;;;;;5088122;28;20040;-69
2023/05/11 03:52:34;;;;;;;50.90;6.55;;;10.60;99.90;;;;;;5101619;28;20040;-71
2023/05/11 03:55:01;;;;;;;9.80;4.00;;;10.60;99.90;;;;;;5087221;28;20119;-70
2023/05/11 03:57:27;;;;;;;6.80;3.47;;;;;;;;;;5087501;28;20126;-70
2023/05/11 03:59:53;;;;;;;8.00;3.58;;;;;;;;;;5102476;28;20576;-70
2023/05/11 04:02:20;;;;;;;11.07;3.67;;;;;;;;;;5088293;28;20512;-71
2023/05/11 04:04:46;;;;;;;24.20;5.60;;;;;;;;;;5092477;28;20044;-70
2023/05/11 04:07:13;;;;;;;16.15;4.57;;;;;;;;;;5071521;28;20044;-70
2023/05/11 04:09:39;;;;;;;26.88;4.97;;;;;;;;;;5086996;28;20374;-70
2023/05/11 04:12:05;;;;;;;27.80;5.15;;;;;;;;;;5094896;28;20489;-70
2023/05/11 04:14:31;;;;;;;20.58;4.75;;;;;;;;;;5093097;28;20043;-70
2023/05/11 04:16:58;;;;;;;13.27;4.13;;;;;;;;;;5094943;28;20494;-70
2023/05/11 04:19:24;;;;;;;5.03;3.30;;;;;;;;;;5098838;28;20077;-70
2023/05/11 04:21:50;;;;;;;3.63;2.50;;;;;;;;;;5090980;28;20110;-71
2023/05/11 04:24:16;;;;;;;6.22;2.83;;;;;;;;;;5088272;28;20547;-70
2023/05/11 04:26:43;;;;;;;4.90;3.00;;;;;;;;;;5085844;28;20028;-70
2023/05/11 04:29:09;;;;;;;6.25;2.97;;;;;;;;;;5087517;28;20457;-70
2023/05/11 04:31:34;;;;;;;4.28;2.80;;;10.60;99.90;;;;;;5105509;28;20265;-70
2023/05/11 04:34:00;;;;;;;5.40;3.55;;;10.60;99.90;;;;;;5095247;28;20051;-70
2023/05/11 04:36:26;;;;;;;6.07;2.60;;;10.60;99.90;;;;;;5090213;28;20088;-72
2023/05/11 04:38:52;;;;;;;5.55;3.33;;;10.50;99.90;;;;;;5088256;28;20040;-71
2023/05/11 04:41:18;;;;;;;6.95;4.10;;;10.50;99.90;;;;;;5088163;28;20101;-71
2023/05/11 04:43:46;;;;;;;8.00;3.90;;;10.50;99.90;;;;;;5100843;28;20426;-72
2023/05/11 04:46:12;;;;;;;12.20;4.55;;;10.50;99.90;;;;;;5099704;28;20501;-73
2023/05/11 04:48:38;;;;;;;13.18;4.38;;;10.60;99.90;;;;;;5093166;28;20046;-72
2023/05/11 04:51:05;;;;;;;10.65;4.60;;;10.50;99.90;;;;;;5088887;28;20047;-73
2023/05/11 04:53:30;;;;;;;12.48;4.75;;;10.50;99.90;;;;;;5105705;28;20437;-72
2023/05/11 04:55:56;;;;;;;8.82;3.58;;;10.50;99.90;;;;;;5103411;28;20110;-71
2023/05/11 04:58:22;;;;;;;26.55;5.05;;;10.60;99.90;;;;;;5089532;28;20032;-70
2023/05/11 05:00:48;;;;;;;6.75;4.00;;;10.50;99.90;;;;;;5085581;28;20070;-70
2023/05/11 05:03:14;;;;;;;9.73;3.83;;;10.50;99.90;;;;;;5105795;27;20040;-70
2023/05/11 05:05:39;;;;;;;9.13;4.88;;;10.50;99.90;;;;;;5095659;28;20032;-70
2023/05/11 05:08:06;;;;;;;6.20;3.25;;;10.50;99.90;;;;;;5090524;28;20358;-70
2023/05/11 05:10:32;;;;;;;6.28;3.78;;;;;;;;;;5090921;28;20044;-70
2023/05/11 05:12:58;;;;;;;9.60;3.88;;;;;;;;;;5091079;28;20040;-70
2023/05/11 05:15:24;;;;;;;6.05;3.63;;;;;;;;;;5090821;28;20043;-69
2023/05/11 05:17:51;;;;;;;5.05;3.10;;;;;;;;;;5098528;28;20080;-70
2023/05/11 05:20:17;;;;;;;4.43;3.05;;;;;;;;;;5107729;28;20046;-69
2023/05/11 05:22:43;;;;;;;4.95;3.50;;;;;;;;;;5091182;28;20036;-70
2023/05/11 05:25:09;;;;;;;4.75;3.47;;;;;;;;;;5090033;28;20071;-70
2023/05/11 05:27:36;;;;;;;4.47;2.72;;;;;;;;;;5090646;28;20063;-70
2023/05/11 05:30:02;;;;;;;4.53;2.38;;;;;;;;;;5088638;28;20401;-70
2023/05/11 05:32:28;;;;;;;4.05;2.55;;;;;;;;;;5101279;28;20179;-70
2023/05/11 05:34:55;;;;;;;3.85;2.55;;;;;;;;;;5088818;28;20812;-70
2023/05/11 05:37:21;;;;;;;4.82;3.15;;;;;;;;;;5093681;28;20035;-70
2023/05/11 05:39:47;;;;;;;3.72;2.45;;;;;;;;;;5094403;28;20154;-70
2023/05/11 05:42:13;;;;;;;4.68;3.35;;;;;;;;;;5090274;28;20032;-70
2023/05/11 05:44:39;;;;;;;5.13;3.60;;;;;;;;;;5102820;28;20435;-70
2023/05/11 05:47:05;;;;;;;7.88;4.03;;;;;;;;;;5094069;28;20028;-70
2023/05/11 05:49:32;;;;;;;6.47;3.95;;;;;;;;;;5102098;28;20439;-70
2023/05/11 05:51:58;;;;;;;5.43;3.03;;;;;;;;;;5106110;28;20035;-69
2023/05/11 05:54:24;;;;;;;5.97;3.65;;;;;;;;;;5090185;28;20139;-70
2023/05/11 05:56:50;;;;;;;9.30;3.63;;;;;;;;;;5088113;28;20127;-69
2023/05/11 05:59:19;;;;;;;4.75;3.35;;;;;;;;;;5071678;28;20243;-69
2023/05/11 06:01:46;;;;;;;5.57;3.25;;;;;;;;;;5095722;28;20051;-70
2023/05/11 06:04:12;;;;;;;4.43;2.88;;;;;;;;;;5093068;28;20652;-70
2023/05/11 06:06:39;;;;;;;4.50;2.90;;;;;;;;;;5090182;28;20040;-70
2023/05/11 06:09:05;;;;;;;4.75;2.75;;;;;;;;;;5089518;28;20048;-70
2023/05/11 06:11:31;;;;;;;4.38;2.47;;;;;;;;;;5098082;28;20052;-70
2023/05/11 06:13:57;;;;;;;4.45;2.28;;;;;;;;;;5096472;28;20047;-69
2023/05/11 06:16:26;;;;;;;3.42;2.30;;;;;;;;;;5099739;28;20040;-70
2023/05/11 06:18:53;;;;;;;2.75;1.83;;;;;;;;;;5090422;28;20504;-70
2023/05/11 06:21:19;;;;;;;2.75;1.50;;;;;;;;;;5096583;28;20316;-70
2023/05/11 06:23:45;;;;;;;2.55;1.90;;;;;;;;;;5088395;28;20112;-70
2023/05/11 06:26:11;;;;;;;2.55;1.67;;;;;;;;;;5105691;28;20100;-70
2023/05/11 06:28:37;;;;;;;3.78;2.22;;;;;;;;;;5084823;28;20454;-71
2023/05/11 06:31:04;;;;;;;3.08;1.95;;;;;;;;;;5101066;28;20316;-71
2023/05/11 06:33:30;;;;;;;2.63;1.83;;;;;;;;;;5101627;28;20131;-71
2023/05/11 06:35:56;;;;;;;3.50;1.88;;;;;;;;;;5096446;28;20032;-70
2023/05/11 06:38:22;;;;;;;2.67;1.85;;;;;;;;;;5102300;28;20130;-70
2023/05/11 06:40:52;;;;;;;3.83;2.17;;;;;;;;;;5099674;28;20047;-70
2023/05/11 06:43:18;;;;;;;2.08;1.50;;;;;;;;;;5100408;28;20055;-70
2023/05/11 06:45:45;;;;;;;2.90;1.77;;;;;;;;;;5096108;28;20044;-71
2023/05/11 06:48:11;;;;;;;3.00;1.85;;;;;;;;;;5100055;28;20065;-71
2023/05/11 06:50:37;;;;;;;2.92;1.60;;;;;;;;;;5103902;28;20039;-70
2023/05/11 06:53:03;;;;;;;3.70;2.10;;;;;;;;;;5101810;28;20123;-71
2023/05/11 06:55:29;;;;;;;3.67;2.13;;;;;;;;;;5105990;28;20393;-71
2023/05/11 06:57:55;;;;;;;3.08;1.92;;;;;;;;;;5099394;28;20051;-71
2023/05/11 07:00:22;;;;;;;3.03;1.60;;;;;;;;;;5102955;28;20036;-71
2023/05/11 07:02:48;;;;;;;2.45;1.67;;;;;;;;;;5105565;28;20035;-70
2023/05/11 07:05:14;;;;;;;2.92;1.85;;;;;;;;;;5097125;28;20395;-70
2023/05/11 07:07:40;;;;;;;2.70;1.73;;;;;;;;;;5098496;28;20031;-70
2023/05/11 07:10:07;;;;;;;4.65;2.35;;;;;;;;;;5105974;28;20066;-71
2023/05/11 07:12:33;;;;;;;3.42;2.20;;;;;;;;;;5092955;28;20055;-70
2023/05/11 07:14:59;;;;;;;4.13;2.47;;;;;;;;;;5090075;28;20048;-71
2023/05/11 07:17:27;;;;;;;4.25;2.70;;;;;;;;;;5098951;28;20039;-71
2023/05/11 07:19:54;;;;;;;3.85;2.70;;;;;;;;;;5099501;28;20104;-71
2023/05/11 07:22:20;;;;;;;3.65;2.42;;;;;;;;;;5102004;28;20078;-71
2023/05/11 07:24:46;;;;;;;3.92;2.80;;;;;;;;;;5091149;28;20372;-71
2023/05/11 07:27:13;;;;;;;5.28;3.10;;;;;;;;;;5075033;28;20395;-70
2023/05/11 07:29:39;;;;;;;4.53;3.15;;;;;;;;;;5096432;28;20327;-70
2023/05/11 07:32:06;;;;;;;4.40;3.20;;;;;;;;;;5100558;28;20074;-70
2023/05/11 07:34:32;;;;;;;5.75;3.72;;;;;;;;;;5098526;28;20438;-71
2023/05/11 07:36:58;;;;;;;6.65;3.90;;;;;;;;;;5091312;28;20036;-71
2023/05/11 07:39:24;;;;;;;6.03;4.10;;;;;;;;;;5092542;28;20481;-70
2023/05/11 07:41:50;;;;;;;5.13;3.50;;;;;;;;;;5100582;28;20036;-70
2023/05/11 07:44:17;;;;;;;5.05;3.70;;;;;;;;;;5096918;28;20047;-71
2023/05/11 07:46:43;;;;;;;4.53;3.13;;;;;;;;;;5094366;28;20128;-70
2023/05/11 07:49:09;;;;;;;6.50;3.50;;;;;;;;;;5099624;28;20082;-70
2023/05/11 07:51:36;;;;;;;5.57;3.22;;;;;;;;;;5093812;28;20052;-71
2023/05/11 07:54:02;;;;;;;5.13;3.35;;;;;;;;;;5094120;28;20473;-71
2023/05/11 07:56:28;;;;;;;6.30;3.88;;;;;;;;;;5104267;28;20047;-70
2023/05/11 07:58:54;;;;;;;5.75;3.25;;;;;;;;;;5097725;28;20059;-70
2023/05/11 08:01:21;;;;;;;5.50;3.15;;;;;;;;;;5094235;28;20443;-71
2023/05/11 08:03:47;;;;;;;4.57;3.20;;;;;;;;;;5096730;28;20069;-70
2023/05/11 08:06:13;;;;;;;7.50;4.45;;;;;;;;;;5092971;28;20044;-70
2023/05/11 08:08:39;;;;;;;6.10;3.30;;;;;;;;;;5094567;28;20052;-71
2023/05/11 08:11:05;;;;;;;5.10;3.50;;;;;;;;;;5098421;28;20114;-71
2023/05/11 08:13:32;;;;;;;8.85;4.47;;;;;;;;;;5088391;28;20140;-71
2023/05/11 08:15:58;;;;;;;6.22;4.10;;;;;;;;;;5087193;28;20397;-70
2023/05/11 08:18:24;;;;;;;8.40;4.95;;;;;;;;;;5087357;28;20040;-70
2023/05/11 08:20:50;;;;;;;8.23;5.13;;;;;;;;;;5087871;28;20502;-70
2023/05/11 08:23:17;;;;;;;7.82;5.13;;;;;;;;;;5089769;28;20115;-70
2023/05/11 08:25:53;;;;;;;7.88;4.93;;;;;;;;;;5087449;28;20044;-70
2023/05/11 08:28:20;;;;;;;8.35;5.28;;;;;;;;;;5089627;28;20557;-70
2023/05/11 08:30:46;;;;;;;11.85;7.80;;;;;;;;;;5087564;28;20055;-71
2023/05/11 08:33:14;;;;;;;8.93;5.63;;;;;;;;;;5093202;28;20090;-70
2023/05/11 08:35:40;;;;;;;8.70;6.03;;;;;;;;;;5094458;28;20036;-70
2023/05/11 08:38:06;;;;;;;8.98;5.40;;;;;;;;;;5099234;28;20044;-70
2023/05/11 08:40:33;;;;;;;7.22;5.50;;;;;;;;;;5097317;28;20040;-70
2023/05/11 08:43:00;;;;;;;13.05;8.18;;;;;;;;;;5108222;28;20206;-70
2023/05/11 08:45:27;;;;;;;11.10;7.63;;;;;;;;;;5090029;28;20036;-71
2023/05/11 08:47:53;;;;;;;13.88;8.48;;;;;;;;;;5096617;28;20031;-70
2023/05/11 08:50:19;;;;;;;12.00;8.38;;;;;;;;;;5101483;28;20361;-70
2023/05/11 08:52:45;;;;;;;17.42;8.60;;;;;;;;;;5104627;28;20051;-70
2023/05/11 08:55:12;;;;;;;16.55;8.75;;;;;;;;;;5097017;28;20040;-70
2023/05/11 08:57:38;;;;;;;18.17;8.95;;;;;;;;;;5098707;28;20036;-70
2023/05/11 09:00:06;;;;;;;17.02;8.40;;;;;;;;;;5099714;28;20127;-71
2023/05/11 09:02:32;;;;;;;16.92;9.35;;;;;;;;;;5091003;28;20044;-70
2023/05/11 09:05:02;;;;;;;12.10;7.80;;;;;;;;;;5095285;28;20043;-70
2023/05/11 09:07:28;;;;;;;16.02;8.48;;;;;;;;;;5097117;28;20067;-71
2023/05/11 09:09:55;;;;;;;15.57;8.60;;;;;;;;;;5097776;28;20079;-70
2023/05/11 09:12:24;;;;;;;13.00;7.68;;;;;;;;;;5087747;28;20084;-70
2023/05/11 09:14:51;;;;;;;14.93;7.93;;;;;;;;;;5097604;28;20437;-70
2023/05/11 09:17:18;;;;;;;13.00;8.63;;;;;;;;;;5097999;28;20234;-70
2023/05/11 09:20:16;;;;;;;11.80;8.02;;;;;;;;;;5072878;28;20450;-70
2023/05/11 09:22:44;;;;;;;11.30;7.30;;;;;;;;;;5083185;28;20132;-70
2023/05/11 09:25:16;;;;;;;13.43;6.95;;;;;;;;;;5102343;28;20092;-71
2023/05/11 09:27:45;;;;;;;7.75;6.13;;;;;;;;;;5100066;28;20036;-70
2023/05/11 09:30:15;;;;;;;10.30;5.97;;;;;;;;;;5098284;28;20405;-70
2023/05/11 09:32:48;;;;;;;9.98;7.50;;;;;;;;;;5106333;28;20040;-70
2023/05/11 09:35:21;;;;;;;11.02;6.82;;;;;;;;;;5101969;28;20488;-70
2023/05/11 09:37:57;;;;;;;9.30;6.57;;;;;;;;;;5094796;28;20497;-71
2023/05/11 09:40:24;;;;;;;7.40;5.22;;;;;;;;;;5090013;28;20153;-70
2023/05/11 09:42:51;;;;;;;7.57;4.95;;;;;;;;;;5092001;28;20342;-71
2023/05/11 09:45:34;;;;;;;8.00;5.75;;;;;;;;;;5098421;28;20043;-70
2023/05/11 09:48:01;;;;;;;10.93;7.13;;;;;;;;;;5104319;28;20046;-71
2023/05/11 09:50:31;;;;;;;11.80;7.22;;;;;;;;;;5094365;28;20158;-71
2023/05/11 09:52:58;;;;;;;9.68;6.35;;;;;;;;;;5098233;28;20437;-70
2023/05/11 09:55:24;;;;;;;12.30;7.90;;;;;;;;;;5089479;28;20062;-71
2023/05/11 09:57:54;;;;;;;8.15;5.25;;;;;;;;;;5102093;28;20535;-70
2023/05/11 10:00:20;;;;;;;8.63;6.30;;;10.50;99.90;;;;;;5105654;28;20470;-70
2023/05/11 10:03:02;;;;;;;7.32;5.10;;;13.00;99.90;;;;;;5094680;28;20500;-71
2023/05/11 10:05:30;;;;;;;6.95;4.90;;;13.00;99.90;;;;;;5089769;28;20036;-70
2023/05/11 10:08:00;;;;;;;8.05;5.72;;;13.00;99.90;;;;;;5090259;28;20032;-70
2023/05/11 10:10:28;;;;;;;7.10;4.90;;;13.10;99.90;;;;;;5100148;28;20451;-70
2023/05/11 10:12:59;;;;;;;8.30;5.28;;;13.10;99.90;;;;;;5091145;28;20040;-71
2023/05/11 10:15:27;;;;;;;7.63;6.13;;;13.20;99.90;;;;;;5091453;28;20048;-71
2023/05/11 10:17:54;;;;;;;7.57;4.95;;;13.30;99.90;;;;;;5089986;28;20071;-70
2023/05/11 10:20:20;;;;;;;9.27;6.65;;;13.30;99.90;;;;;;5089213;28;20367;-71
2023/05/11 10:22:46;;;;;;;7.88;5.32;;;13.40;99.90;;;;;;5096695;28;20035;-71
2023/05/11 10:25:14;;;;;;;7.18;5.10;;;13.40;99.90;;;;;;5091160;28;20494;-70
2023/05/11 10:27:40;;;;;;;7.32;5.60;;;;;;;;;;5088568;28;20153;-71
2023/05/11 10:30:07;;;;;;;8.73;6.20;;;;;;;;;;5088617;28;20126;-71
2023/05/11 10:32:38;;;;;;;7.38;5.88;;;;;;;;;;5100342;28;20039;-71
2023/05/11 10:35:05;;;;;;;6.88;5.50;;;;;;;;;;5092446;28;20063;-71
2023/05/11 10:37:32;;;;;;;6.72;5.35;;;;;;;;;;5089286;28;20032;-71
2023/05/11 10:39:58;;;;;;;6.63;4.97;;;;;;;;;;5088515;28;20043;-71
2023/05/11 10:42:24;;;;;;;6.35;4.60;;;;;;;;;;5096345;28;20066;-71
2023/05/11 10:45:08;;;;;;;7.70;5.43;;;;;;;;;;5094913;28;20440;-71
2023/05/11 10:47:33;;;;;;;;;;;;;;;;;;5093124;28;20097;-71
2023/05/11 10:50:15;;;;;;;6.68;4.65;;;;;;;;;;5099135;28;20483;-71
2023/05/11 10:52:50;;;;;;;5.60;4.53;;;;;;;;;;5102545;28;20062;-71
2023/05/11 10:55:26;;;;;;;7.43;5.05;;;;;;;;;;5088288;28;20054;-71
2023/05/11 10:58:20;;;;;;;5.97;4.57;;;13.50;99.90;;;;;;5097480;28;20040;-71
2023/05/11 11:01:05;;;;;;;6.50;4.93;;;;;;;;;;5088093;28;20569;-71
2023/05/11 11:03:31;;;;;;;6.80;4.82;;;;;;;;;;5094376;28;20070;-71
2023/05/11 11:05:58;;;;;;;6.50;4.55;;;;;;;;;;5096833;28;20507;-71
2023/05/11 11:08:24;;;;;;;6.85;5.25;;;;;;;;;;5094729;28;20052;-71
2023/05/11 11:10:50;;;;;;;7.63;4.97;;;;;;;;;;5086948;28;20055;-71
2023/05/11 11:13:18;;;;;;;6.97;5.45;;;;;;;;;;5087349;28;20055;-71
2023/05/11 11:15:54;;;;;;;6.65;4.68;;;;;;;;;;5088165;28;20118;-71
2023/05/11 11:18:27;;;;;;;6.30;5.20;;;;;;;;;;5088210;28;20036;-71
2023/05/11 11:20:54;;;;;;;7.53;5.13;;;;;;;;;;5089252;28;20040;-71
2023/05/11 11:23:39;;;;;;;7.78;5.60;;;;;;;;;;5087188;28;20079;-71
2023/05/11 11:26:06;;;;;;;7.78;5.25;;;;;;;;;;5091119;28;20027;-71
2023/05/11 11:28:51;;;;;;;7.18;5.40;;;;;;;;;;5090901;28;20036;-71
2023/05/11 11:31:27;;;;;;;5.88;4.78;;;;;;;;;;5090406;28;20466;-71
2023/05/11 11:33:57;;;;;;;7.82;5.53;;;;;;;;;;5091080;28;20036;-71
2023/05/11 11:36:42;;;;;;;7.18;5.22;;;;;;;;;;5102515;28;20149;-71
2023/05/11 11:39:09;;;;;;;6.30;5.05;;;;;;;;;;5087720;28;20036;-71
2023/05/11 11:41:36;;;;;;;8.02;5.93;;;;;;;;;;5085998;28;20051;-71
2023/05/11 11:44:03;;;;;;;6.97;5.72;;;;;;;;;;5095973;28;20507;-71
2023/05/11 11:46:29;;;;;;;6.40;4.28;;;;;;;;;;5089536;28;20031;-71
2023/05/11 11:49:08;;;;;;;7.63;5.50;;;;;;;;;;5097540;28;20111;-71
2023/05/11 11:51:39;;;;;;;6.63;4.75;;;;;;;;;;5091482;28;20040;-71
2023/05/11 11:54:05;;;;;;;7.25;4.70;;;;;;;;;;5087894;28;20040;-71
2023/05/11 11:56:31;;;;;;;5.68;5.05;;;;;;;;;;5096246;28;20040;-71
2023/05/11 11:58:59;;;;;;;7.72;4.18;;;;;;;;;;5103382;28;20105;-71
2023/05/11 12:01:27;;;;;;;6.13;4.85;;;;;;;;;;5091479;28;20443;-70
2023/05/11 12:04:15;;;;;;;9.18;6.03;;;;;;;;;;5094961;28;20040;-71
2023/05/11 12:06:43;;;;;;;6.93;5.43;;;;;;;;;;5094026;28;20177;-71
2023/05/11 12:09:09;;;;;;;13.27;6.05;;;;;;;;;;5092561;28;20437;-71
2023/05/11 12:11:37;;;;;;;8.48;5.97;;;;;;;;;;5094552;28;20040;-71
2023/05/11 12:14:03;;;;;;;7.57;5.18;;;;;;;;;;5102392;28;20054;-71
2023/05/11 12:16:30;;;;;;;5.07;4.18;;;;;;;;;;5101642;28;20044;-71
2023/05/11 12:18:58;;;;;;;8.35;6.40;;;;;;;;;;5100462;28;20309;-71
2023/05/11 12:21:30;;;;;;;7.10;5.47;;;;;;;;;;5089478;28;20493;-71
2023/05/11 12:23:58;;;;;;;7.37;6.10;;;;;;;;;;5091732;28;20155;-71
2023/05/11 12:26:25;;;;;;;8.13;5.30;;;;;;;;;;5111045;28;20062;-71
2023/05/11 12:28:51;;;;;;;7.43;6.20;;;;;;;;;;5111669;28;20051;-71
2023/05/11 12:31:18;;;;;;;6.80;5.50;;;;;;;;;;5094770;28;20036;-71
2023/05/11 12:33:44;;;;;;;6.90;4.72;;;;;;;;;;5099732;28;20129;-71
2023/05/11 12:36:13;;;;;;;12.13;5.05;;;;;;;;;;5091428;28;20545;-71
2023/05/11 12:38:46;;;;;;;6.10;4.43;;;;;;;;;;5099093;28;20048;-71
2023/05/11 12:41:12;;;;;;;;;;;;;;;;;;5092106;28;20044;-71
2023/05/11 12:43:38;;;;;;;5.50;4.07;;;;;;;;;;5099368;28;20007;-71
2023/05/11 12:46:05;;;;;;;4.53;3.35;;;;;;;;;;5096613;28;20132;-72
2023/05/11 12:48:31;;;;;;;4.88;3.78;;;;;;;;;;5101773;28;20043;-71
2023/05/11 12:50:57;;;;;;;6.40;3.67;;;;;;;;;;5094598;28;20119;-71
2023/05/11 12:53:23;;;;;;;4.93;3.38;;;;;;;;;;5103902;27;20073;-71
2023/05/11 12:55:59;;;;;;;4.68;3.03;;;;;;;;;;5096685;28;20096;-71
2023/05/11 12:58:25;;;;;;;6.70;3.50;;;;;;;;;;5099188;28;20609;-72
2023/05/11 13:00:56;;;;;;;5.22;3.70;;;;;;;;;;5081016;28;20050;-71
2023/05/11 13:03:22;;;;;;;5.05;3.22;;;;;;;;;;5098302;28;20036;-71
2023/05/11 13:05:48;;;;;;;6.15;3.25;;;;;;;;;;5105187;28;20071;-71
2023/05/11 13:08:16;;;;;;;4.75;3.15;;;;;;;;;;5090198;28;20134;-72
2023/05/11 13:10:42;;;;;;;6.68;3.88;;;;;;;;;;5098042;28;20516;-72
2023/05/11 13:13:09;;;;;;;4.90;3.10;;;;;;;;;;5094395;28;20048;-71
2023/05/11 13:15:49;;;;;;;4.32;3.22;;;;;;;;;;5099388;28;20181;-72
2023/05/11 13:18:16;;;;;;;5.80;4.15;;;;;;;;;;5095773;28;20584;-70
2023/05/11 13:20:43;;;;;;;7.30;4.45;;;;;;;;;;5098415;28;20096;-72
2023/05/11 13:23:13;;;;;;;5.80;3.72;;;;;;;;;;5095952;28;20035;-71
2023/05/11 13:25:48;;;;;;;5.97;3.20;;;;;;;;;;5098294;28;20038;-71
2023/05/11 13:28:15;;;;;;;5.50;2.70;;;;;;;;;;5099447;28;20036;-72
2023/05/11 13:30:41;;;;;;;6.85;3.60;;;;;;;;;;5098931;28;20515;-71
2023/05/11 13:33:08;;;;;;;6.50;3.70;;;;;;;;;;5096967;28;20138;-70
2023/05/11 13:35:40;;;;;;;5.38;3.90;;;;;;;;;;5098183;28;20047;-71
2023/05/11 13:38:06;;;;;;;5.28;3.60;;;;;;;;;;5095551;28;20090;-71
2023/05/11 13:40:33;;;;;;;5.32;3.05;;;;;;;;;;5101958;28;20052;-71
2023/05/11 13:43:00;;;;;;;5.97;4.18;;;;;;;;;;5098974;27;20044;-70
2023/05/11 13:45:27;;;;;;;5.90;3.97;;;;;;;;;;5099149;28;20060;-70
2023/05/11 13:47:56;;;;;;;6.55;4.00;;;;;;;;;;5080754;28;20564;-70
2023/05/11 13:50:23;;;;;;;5.32;4.53;;;;;;;;;;5099963;28;20036;-71
2023/05/11 13:52:50;;;;;;;7.10;5.13;;;;;;;;;;5099425;28;20051;-70
2023/05/11 13:55:16;;;;;;;7.22;5.30;;;;;;;;;;5095868;28;20047;-70
2023/05/11 13:57:42;;;;;;;6.35;4.63;;;;;;;;;;5095873;28;20045;-70
2023/05/11 14:00:09;;;;;;;5.78;4.55;;;;;;;;;;5098502;28;20119;-71
2023/05/11 14:02:35;;;;;;;7.07;5.75;;;;;;;;;;5096765;28;20541;-71
2023/05/11 14:05:01;;;;;;;6.82;4.90;;;;;;;;;;5098170;28;20590;-71
2023/05/11 14:07:28;;;;;;;7.40;5.97;;;;;;;;;;5098862;28;20118;-71
2023/05/11 14:09:54;;;;;;;7.28;5.43;;;;;;;;;;5095697;28;20052;-71
2023/05/11 14:12:20;;;;;;;10.15;4.95;;;;;;;;;;5100035;28;20044;-71
2023/05/11 14:14:46;;;;;;;7.25;5.72;;;;;;;;;;5096470;28;20417;-71
2023/05/11 14:17:12;;;;;;;10.05;5.43;;;;;;;;;;5094470;28;20096;-71
2023/05/11 14:19:39;;;;;;;6.35;4.95;;;;;;;;;;5088915;28;20761;-71
2023/05/11 14:22:05;;;;;;;6.00;4.55;;;;;;;;;;5083558;27;20181;-70
2023/05/11 14:24:31;;;;;;;6.68;4.40;;;;;;;;;;5098542;27;20115;-71
2023/05/11 14:26:58;;;;;;;9.48;5.15;;;;;;;;;;5094364;28;20042;-70
2023/05/11 14:29:25;;;;;;;5.68;3.83;;;;;;;;;;5074033;28;20143;-70
2023/05/11 14:31:51;;;;;;;6.20;4.47;;;;;;;;;;5098353;28;20039;-71